sensor_id;sensor_type;location;lat;lon;timestamp;temperature;humidity
55004;DHT22;40900;52.710;6.438;2022-11-15T00:00:26;7.80;99.90
55004;DHT22;40900;52.710;6.438;2022-11-15T00:02:52;7.80;99.90
55004;DHT22;40900;52.710;6.438;2022-11-15T00:05:18;7.80;99.90
55004;DHT22;40900;52.710;6.438;2022-11-15T00:07:44;7.70;99.90
55004;DHT22;40900;52.710;6.438;2022-11-15T00:10:10;7.70;99.90
55004;DHT22;40900;52.710;6.438;2022-11-15T00:12:35;7.70;99.90
55004;DHT22;40900;52.710;6.438;2022-11-15T00:15:01;7.70;99.90
55004;DHT22;40900;52.710;6.438;2022-11-15T00:17:27;7.80;99.90
55004;DHT22;40900;52.710;6.438;2022-11-15T00:19:52;7.70;99.90
55004;DHT22;40900;52.710;6.438;2022-11-15T00:22:18;7.70;99.90
55004;DHT22;40900;52.710;6.438;2022-11-15T00:24:44;7.70;99.90
55004;DHT22;40900;52.710;6.438;2022-11-15T00:27:09;7.70;99.90
55004;DHT22;40900;52.710;6.438;2022-11-15T00:29:35;7.70;99.90
55004;DHT22;40900;52.710;6.438;2022-11-15T00:32:03;7.70;99.90
55004;DHT22;40900;52.710;6.438;2022-11-15T00:34:28;7.70;99.90
55004;DHT22;40900;52.710;6.438;2022-11-15T00:36:54;7.60;99.90
55004;DHT22;40900;52.710;6.438;2022-11-15T00:39:20;7.70;99.90
55004;DHT22;40900;52.710;6.438;2022-11-15T00:41:45;7.60;99.90
55004;DHT22;40900;52.710;6.438;2022-11-15T00:44:11;7.60;99.90
55004;DHT22;40900;52.710;6.438;2022-11-15T00:46:37;7.60;99.90
55004;DHT22;40900;52.710;6.438;2022-11-15T00:49:02;7.50;99.90
55004;DHT22;40900;52.710;6.438;2022-11-15T00:51:28;7.50;99.90
55004;DHT22;40900;52.710;6.438;2022-11-15T00:53:54;7.60;99.90
55004;DHT22;40900;52.710;6.438;2022-11-15T00:56:19;7.50;99.90
55004;DHT22;40900;52.710;6.438;2022-11-15T00:58:46;7.50;99.90
55004;DHT22;40900;52.710;6.438;2022-11-15T01:01:13;7.50;99.90
55004;DHT22;40900;52.710;6.438;2022-11-15T01:03:40;7.60;99.90
55004;DHT22;40900;52.710;6.438;2022-11-15T01:06:07;7.60;99.90
55004;DHT22;40900;52.710;6.438;2022-11-15T01:08:33;7.60;99.90
55004;DHT22;40900;52.710;6.438;2022-11-15T01:11:08;7.50;99.90
55004;DHT22;40900;52.710;6.438;2022-11-15T01:13:36;7.60;99.90
55004;DHT22;40900;52.710;6.438;2022-11-15T01:16:09;7.60;99.90
55004;DHT22;40900;52.710;6.438;2022-11-15T01:18:35;7.60;99.90
55004;DHT22;40900;52.710;6.438;2022-11-15T01:21:06;7.70;99.90
55004;DHT22;40900;52.710;6.438;2022-11-15T01:23:32;7.70;99.90
55004;DHT22;40900;52.710;6.438;2022-11-15T01:26:02;7.70;99.90
55004;DHT22;40900;52.710;6.438;2022-11-15T01:28:33;7.70;99.90
55004;DHT22;40900;52.710;6.438;2022-11-15T01:31:04;7.70;99.90
55004;DHT22;40900;52.710;6.438;2022-11-15T01:33:30;7.70;99.90
55004;DHT22;40900;52.710;6.438;2022-11-15T01:35:56;7.70;99.90
55004;DHT22;40900;52.710;6.438;2022-11-15T01:38:22;7.70;99.90
55004;DHT22;40900;52.710;6.438;2022-11-15T01:40:48;7.70;99.90
55004;DHT22;40900;52.710;6.438;2022-11-15T01:43:22;7.80;99.90
55004;DHT22;40900;52.710;6.438;2022-11-15T01:48:32;7.80;99.90
55004;DHT22;40900;52.710;6.438;2022-11-15T01:51:00;7.80;99.90
55004;DHT22;40900;52.710;6.438;2022-11-15T01:53:27;7.80;99.90
55004;DHT22;40900;52.710;6.438;2022-11-15T01:55:54;7.80;99.90
55004;DHT22;40900;52.710;6.438;2022-11-15T01:58:20;7.80;99.90
55004;DHT22;40900;52.710;6.438;2022-11-15T02:00:46;7.80;99.90
55004;DHT22;40900;52.710;6.438;2022-11-15T02:03:13;7.70;99.90
55004;DHT22;40900;52.710;6.438;2022-11-15T02:05:39;7.80;99.90
55004;DHT22;40900;52.710;6.438;2022-11-15T02:08:07;7.80;99.90
55004;DHT22;40900;52.710;6.438;2022-11-15T02:10:33;7.80;99.90
55004;DHT22;40900;52.710;6.438;2022-11-15T02:13:00;7.80;99.90
55004;DHT22;40900;52.710;6.438;2022-11-15T02:15:30;7.90;99.90
55004;DHT22;40900;52.710;6.438;2022-11-15T02:18:23;7.90;99.90
55004;DHT22;40900;52.710;6.438;2022-11-15T02:24:06;7.90;99.90
55004;DHT22;40900;52.710;6.438;2022-11-15T02:32:19;7.90;99.90
55004;DHT22;40900;52.710;6.438;2022-11-15T02:35:02;7.90;99.90
55004;DHT22;40900;52.710;6.438;2022-11-15T02:37:43;7.90;99.90
55004;DHT22;40900;52.710;6.438;2022-11-15T02:43:06;7.90;99.90
55004;DHT22;40900;52.710;6.438;2022-11-15T02:46:31;7.90;99.90
55004;DHT22;40900;52.710;6.438;2022-11-15T02:48:47;8.00;99.90
55004;DHT22;40900;52.710;6.438;2022-11-15T02:51:13;7.90;99.90
55004;DHT22;40900;52.710;6.438;2022-11-15T02:53:40;7.90;99.90
55004;DHT22;40900;52.710;6.438;2022-11-15T02:56:09;8.00;99.90
55004;DHT22;40900;52.710;6.438;2022-11-15T03:01:53;8.10;99.90
55004;DHT22;40900;52.710;6.438;2022-11-15T03:04:44;8.00;99.90
55004;DHT22;40900;52.710;6.438;2022-11-15T03:07:18;8.00;99.90
55004;DHT22;40900;52.710;6.438;2022-11-15T03:10:18;8.10;99.90
55004;DHT22;40900;52.710;6.438;2022-11-15T03:12:51;8.10;99.90
55004;DHT22;40900;52.710;6.438;2022-11-15T03:15:26;8.10;99.90
55004;DHT22;40900;52.710;6.438;2022-11-15T03:18:12;8.10;99.90
55004;DHT22;40900;52.710;6.438;2022-11-15T03:20:42;8.10;99.90
55004;DHT22;40900;52.710;6.438;2022-11-15T03:23:09;8.20;99.90
55004;DHT22;40900;52.710;6.438;2022-11-15T03:25:41;8.20;99.90
55004;DHT22;40900;52.710;6.438;2022-11-15T03:28:09;8.20;99.90
55004;DHT22;40900;52.710;6.438;2022-11-15T03:30:38;8.20;99.90
55004;DHT22;40900;52.710;6.438;2022-11-15T03:33:05;8.20;99.90
55004;DHT22;40900;52.710;6.438;2022-11-15T03:35:38;8.20;99.90
55004;DHT22;40900;52.710;6.438;2022-11-15T03:40:40;8.30;99.90
55004;DHT22;40900;52.710;6.438;2022-11-15T03:43:18;8.20;99.90
55004;DHT22;40900;52.710;6.438;2022-11-15T03:46:00;8.20;99.90
55004;DHT22;40900;52.710;6.438;2022-11-15T03:48:34;8.30;99.90
55004;DHT22;40900;52.710;6.438;2022-11-15T03:51:03;8.30;99.90
55004;DHT22;40900;52.710;6.438;2022-11-15T03:53:29;8.30;99.90
55004;DHT22;40900;52.710;6.438;2022-11-15T03:55:57;8.30;99.90
55004;DHT22;40900;52.710;6.438;2022-11-15T03:58:23;8.30;99.90
55004;DHT22;40900;52.710;6.438;2022-11-15T04:00:48;8.40;99.90
55004;DHT22;40900;52.710;6.438;2022-11-15T04:03:14;8.30;99.90
55004;DHT22;40900;52.710;6.438;2022-11-15T04:05:40;8.30;99.90
55004;DHT22;40900;52.710;6.438;2022-11-15T04:08:05;8.40;99.90
55004;DHT22;40900;52.710;6.438;2022-11-15T04:10:31;8.40;99.90
55004;DHT22;40900;52.710;6.438;2022-11-15T04:12:57;8.40;99.90
55004;DHT22;40900;52.710;6.438;2022-11-15T04:15:23;8.40;99.90
55004;DHT22;40900;52.710;6.438;2022-11-15T04:17:50;8.40;99.90
55004;DHT22;40900;52.710;6.438;2022-11-15T04:20:22;8.40;99.90
55004;DHT22;40900;52.710;6.438;2022-11-15T04:23:12;8.50;99.90
55004;DHT22;40900;52.710;6.438;2022-11-15T04:26:00;8.50;99.90
55004;DHT22;40900;52.710;6.438;2022-11-15T04:28:26;8.60;99.90
55004;DHT22;40900;52.710;6.438;2022-11-15T04:30:52;8.60;99.90
55004;DHT22;40900;52.710;6.438;2022-11-15T04:33:18;8.70;99.90
55004;DHT22;40900;52.710;6.438;2022-11-15T04:35:44;8.70;99.90
55004;DHT22;40900;52.710;6.438;2022-11-15T04:38:29;8.80;99.90
55004;DHT22;40900;52.710;6.438;2022-11-15T04:40:55;8.80;99.90
55004;DHT22;40900;52.710;6.438;2022-11-15T04:43:21;8.80;99.90
55004;DHT22;40900;52.710;6.438;2022-11-15T04:45:46;8.90;99.90
55004;DHT22;40900;52.710;6.438;2022-11-15T04:48:12;8.90;99.90
55004;DHT22;40900;52.710;6.438;2022-11-15T04:50:37;8.90;99.90
55004;DHT22;40900;52.710;6.438;2022-11-15T04:53:03;9.00;99.90
55004;DHT22;40900;52.710;6.438;2022-11-15T04:55:29;9.00;99.90
55004;DHT22;40900;52.710;6.438;2022-11-15T04:58:00;9.00;99.90
55004;DHT22;40900;52.710;6.438;2022-11-15T05:00:28;9.10;99.90
55004;DHT22;40900;52.710;6.438;2022-11-15T05:02:54;9.10;99.90
55004;DHT22;40900;52.710;6.438;2022-11-15T05:05:39;9.10;99.90
55004;DHT22;40900;52.710;6.438;2022-11-15T05:08:04;9.10;99.90
55004;DHT22;40900;52.710;6.438;2022-11-15T05:10:30;9.10;99.90
55004;DHT22;40900;52.710;6.438;2022-11-15T05:12:56;9.10;99.90
55004;DHT22;40900;52.710;6.438;2022-11-15T05:15:22;9.10;99.90
55004;DHT22;40900;52.710;6.438;2022-11-15T05:17:47;9.10;99.90
55004;DHT22;40900;52.710;6.438;2022-11-15T05:20:13;9.20;99.90
55004;DHT22;40900;52.710;6.438;2022-11-15T05:22:39;9.10;99.90
55004;DHT22;40900;52.710;6.438;2022-11-15T05:25:06;9.10;99.90
55004;DHT22;40900;52.710;6.438;2022-11-15T05:27:33;9.10;99.90
55004;DHT22;40900;52.710;6.438;2022-11-15T05:29:59;9.20;99.90
55004;DHT22;40900;52.710;6.438;2022-11-15T05:32:25;9.20;99.90
55004;DHT22;40900;52.710;6.438;2022-11-15T05:34:51;9.20;99.90
55004;DHT22;40900;52.710;6.438;2022-11-15T05:37:17;9.20;99.90
55004;DHT22;40900;52.710;6.438;2022-11-15T05:39:43;9.20;99.90
55004;DHT22;40900;52.710;6.438;2022-11-15T05:42:13;9.20;99.90
55004;DHT22;40900;52.710;6.438;2022-11-15T05:44:41;9.30;99.90
55004;DHT22;40900;52.710;6.438;2022-11-15T05:47:10;9.30;99.90
55004;DHT22;40900;52.710;6.438;2022-11-15T05:49:39;9.30;99.90
55004;DHT22;40900;52.710;6.438;2022-11-15T05:52:09;9.30;99.90
55004;DHT22;40900;52.710;6.438;2022-11-15T05:54:36;9.40;99.90
55004;DHT22;40900;52.710;6.438;2022-11-15T05:57:04;9.40;99.90
55004;DHT22;40900;52.710;6.438;2022-11-15T05:59:31;9.40;99.90
55004;DHT22;40900;52.710;6.438;2022-11-15T06:01:58;9.40;99.90
55004;DHT22;40900;52.710;6.438;2022-11-15T06:04:24;9.50;99.90
55004;DHT22;40900;52.710;6.438;2022-11-15T06:06:49;9.50;99.90
55004;DHT22;40900;52.710;6.438;2022-11-15T06:09:15;9.50;99.90
55004;DHT22;40900;52.710;6.438;2022-11-15T06:11:41;9.60;99.90
55004;DHT22;40900;52.710;6.438;2022-11-15T06:14:06;9.60;99.90
55004;DHT22;40900;52.710;6.438;2022-11-15T06:16:32;9.60;99.90
55004;DHT22;40900;52.710;6.438;2022-11-15T06:18:58;9.60;99.90
55004;DHT22;40900;52.710;6.438;2022-11-15T06:21:24;9.70;99.90
55004;DHT22;40900;52.710;6.438;2022-11-15T06:23:49;9.70;99.90
55004;DHT22;40900;52.710;6.438;2022-11-15T06:26:15;9.70;99.90
55004;DHT22;40900;52.710;6.438;2022-11-15T06:28:41;9.70;99.90
55004;DHT22;40900;52.710;6.438;2022-11-15T06:31:09;9.70;99.90
55004;DHT22;40900;52.710;6.438;2022-11-15T06:33:36;9.70;99.90
55004;DHT22;40900;52.710;6.438;2022-11-15T06:36:04;9.80;99.90
55004;DHT22;40900;52.710;6.438;2022-11-15T06:38:30;9.80;99.90
55004;DHT22;40900;52.710;6.438;2022-11-15T06:41:04;9.80;99.90
55004;DHT22;40900;52.710;6.438;2022-11-15T06:43:30;9.80;99.90
55004;DHT22;40900;52.710;6.438;2022-11-15T06:45:58;9.80;99.90
55004;DHT22;40900;52.710;6.438;2022-11-15T06:48:25;9.80;99.90
55004;DHT22;40900;52.710;6.438;2022-11-15T06:50:56;9.80;99.90
55004;DHT22;40900;52.710;6.438;2022-11-15T06:53:22;9.90;99.90
55004;DHT22;40900;52.710;6.438;2022-11-15T06:55:49;9.90;99.90
55004;DHT22;40900;52.710;6.438;2022-11-15T06:58:15;9.90;99.90
55004;DHT22;40900;52.710;6.438;2022-11-15T07:00:41;9.90;99.90
55004;DHT22;40900;52.710;6.438;2022-11-15T07:03:07;9.90;99.90
55004;DHT22;40900;52.710;6.438;2022-11-15T07:05:33;9.90;99.90
55004;DHT22;40900;52.710;6.438;2022-11-15T07:07:59;9.90;99.90
55004;DHT22;40900;52.710;6.438;2022-11-15T07:10:25;9.90;99.90
55004;DHT22;40900;52.710;6.438;2022-11-15T07:12:52;9.90;99.90
55004;DHT22;40900;52.710;6.438;2022-11-15T07:15:19;10.00;99.90
55004;DHT22;40900;52.710;6.438;2022-11-15T07:17:45;10.00;99.90
55004;DHT22;40900;52.710;6.438;2022-11-15T07:20:11;10.00;99.90
55004;DHT22;40900;52.710;6.438;2022-11-15T07:22:39;10.00;99.90
55004;DHT22;40900;52.710;6.438;2022-11-15T07:25:05;10.00;99.90
55004;DHT22;40900;52.710;6.438;2022-11-15T07:27:31;10.10;99.90
55004;DHT22;40900;52.710;6.438;2022-11-15T07:29:56;10.10;99.90
55004;DHT22;40900;52.710;6.438;2022-11-15T07:32:22;10.10;99.90
55004;DHT22;40900;52.710;6.438;2022-11-15T07:34:48;10.10;99.90
55004;DHT22;40900;52.710;6.438;2022-11-15T07:37:13;10.10;99.90
55004;DHT22;40900;52.710;6.438;2022-11-15T07:39:39;10.20;99.90
55004;DHT22;40900;52.710;6.438;2022-11-15T07:42:05;10.20;99.90
55004;DHT22;40900;52.710;6.438;2022-11-15T07:44:49;10.20;99.90
55004;DHT22;40900;52.710;6.438;2022-11-15T07:47:15;10.20;99.90
55004;DHT22;40900;52.710;6.438;2022-11-15T07:49:40;10.20;99.90
55004;DHT22;40900;52.710;6.438;2022-11-15T07:52:06;10.30;99.90
55004;DHT22;40900;52.710;6.438;2022-11-15T07:54:32;10.30;99.90
55004;DHT22;40900;52.710;6.438;2022-11-15T07:56:57;10.30;99.90
55004;DHT22;40900;52.710;6.438;2022-11-15T07:59:23;10.30;99.90
55004;DHT22;40900;52.710;6.438;2022-11-15T08:01:49;10.30;99.90
55004;DHT22;40900;52.710;6.438;2022-11-15T08:04:14;10.30;99.90
55004;DHT22;40900;52.710;6.438;2022-11-15T08:06:40;10.30;99.90
55004;DHT22;40900;52.710;6.438;2022-11-15T08:09:09;10.30;99.90
55004;DHT22;40900;52.710;6.438;2022-11-15T08:11:35;10.30;99.90
55004;DHT22;40900;52.710;6.438;2022-11-15T08:14:00;10.40;99.90
55004;DHT22;40900;52.710;6.438;2022-11-15T08:16:26;10.40;99.90
55004;DHT22;40900;52.710;6.438;2022-11-15T08:18:52;10.40;99.90
55004;DHT22;40900;52.710;6.438;2022-11-15T08:21:21;10.40;99.90
55004;DHT22;40900;52.710;6.438;2022-11-15T08:23:48;10.40;99.90
55004;DHT22;40900;52.710;6.438;2022-11-15T08:26:14;10.40;99.90
55004;DHT22;40900;52.710;6.438;2022-11-15T08:28:40;10.50;99.90
55004;DHT22;40900;52.710;6.438;2022-11-15T08:31:05;10.50;99.90
55004;DHT22;40900;52.710;6.438;2022-11-15T08:33:32;10.50;99.90
55004;DHT22;40900;52.710;6.438;2022-11-15T08:35:59;10.50;99.90
55004;DHT22;40900;52.710;6.438;2022-11-15T08:38:25;10.60;99.90
55004;DHT22;40900;52.710;6.438;2022-11-15T08:40:53;10.60;99.90
55004;DHT22;40900;52.710;6.438;2022-11-15T08:43:23;10.60;99.90
55004;DHT22;40900;52.710;6.438;2022-11-15T08:45:49;10.60;99.90
55004;DHT22;40900;52.710;6.438;2022-11-15T08:48:15;10.60;99.90
55004;DHT22;40900;52.710;6.438;2022-11-15T08:50:40;10.70;99.90
55004;DHT22;40900;52.710;6.438;2022-11-15T08:53:07;10.70;99.90
55004;DHT22;40900;52.710;6.438;2022-11-15T08:55:36;10.70;99.90
55004;DHT22;40900;52.710;6.438;2022-11-15T08:58:02;10.70;99.90
55004;DHT22;40900;52.710;6.438;2022-11-15T09:00:28;10.80;99.90
55004;DHT22;40900;52.710;6.438;2022-11-15T09:02:54;10.80;99.90
55004;DHT22;40900;52.710;6.438;2022-11-15T09:05:19;10.80;99.90
55004;DHT22;40900;52.710;6.438;2022-11-15T09:07:46;10.80;99.90
55004;DHT22;40900;52.710;6.438;2022-11-15T09:10:11;10.90;99.90
55004;DHT22;40900;52.710;6.438;2022-11-15T09:12:37;10.80;99.90
55004;DHT22;40900;52.710;6.438;2022-11-15T09:15:04;10.90;99.90
55004;DHT22;40900;52.710;6.438;2022-11-15T09:17:31;10.90;99.90
55004;DHT22;40900;52.710;6.438;2022-11-15T09:19:56;10.90;99.90
55004;DHT22;40900;52.710;6.438;2022-11-15T09:22:22;11.00;99.90
55004;DHT22;40900;52.710;6.438;2022-11-15T09:24:48;11.00;99.90
55004;DHT22;40900;52.710;6.438;2022-11-15T09:27:13;11.00;99.90
55004;DHT22;40900;52.710;6.438;2022-11-15T09:29:39;11.10;99.90
55004;DHT22;40900;52.710;6.438;2022-11-15T09:32:05;11.10;99.90
55004;DHT22;40900;52.710;6.438;2022-11-15T09:34:31;11.10;99.90
55004;DHT22;40900;52.710;6.438;2022-11-15T09:36:57;11.10;99.90
55004;DHT22;40900;52.710;6.438;2022-11-15T09:39:23;11.10;99.90
55004;DHT22;40900;52.710;6.438;2022-11-15T09:49:52;11.20;99.90
55004;DHT22;40900;52.710;6.438;2022-11-15T09:52:19;11.20;99.90
55004;DHT22;40900;52.710;6.438;2022-11-15T09:54:48;11.20;99.90
55004;DHT22;40900;52.710;6.438;2022-11-15T09:57:43;11.30;99.90
55004;DHT22;40900;52.710;6.438;2022-11-15T10:00:37;11.20;99.90
55004;DHT22;40900;52.710;6.438;2022-11-15T10:05:44;11.30;99.90
55004;DHT22;40900;52.710;6.438;2022-11-15T10:08:22;11.30;99.90
55004;DHT22;40900;52.710;6.438;2022-11-15T10:11:02;11.30;99.90
55004;DHT22;40900;52.710;6.438;2022-11-15T10:13:32;11.30;99.90
55004;DHT22;40900;52.710;6.438;2022-11-15T10:21:54;11.40;99.90
55004;DHT22;40900;52.710;6.438;2022-11-15T10:24:26;11.50;99.90
55004;DHT22;40900;52.710;6.438;2022-11-15T10:26:54;11.70;99.90
55004;DHT22;40900;52.710;6.438;2022-11-15T10:29:21;11.90;99.90
55004;DHT22;40900;52.710;6.438;2022-11-15T10:31:47;12.10;99.90
55004;DHT22;40900;52.710;6.438;2022-11-15T10:34:16;12.50;99.90
55004;DHT22;40900;52.710;6.438;2022-11-15T10:37:02;13.00;99.90
55004;DHT22;40900;52.710;6.438;2022-11-15T10:39:28;13.90;99.90
55004;DHT22;40900;52.710;6.438;2022-11-15T10:41:54;14.50;99.90
55004;DHT22;40900;52.710;6.438;2022-11-15T10:44:25;15.10;99.90
55004;DHT22;40900;52.710;6.438;2022-11-15T10:49:24;16.40;99.90
55004;DHT22;40900;52.710;6.438;2022-11-15T10:51:53;16.50;99.90
55004;DHT22;40900;52.710;6.438;2022-11-15T10:54:27;16.40;99.90
55004;DHT22;40900;52.710;6.438;2022-11-15T10:56:56;15.90;99.90
55004;DHT22;40900;52.710;6.438;2022-11-15T10:59:45;15.30;99.90
55004;DHT22;40900;52.710;6.438;2022-11-15T11:04:56;14.20;99.90
55004;DHT22;40900;52.710;6.438;2022-11-15T11:07:24;14.10;99.90
55004;DHT22;40900;52.710;6.438;2022-11-15T11:09:59;14.00;99.90
55004;DHT22;40900;52.710;6.438;2022-11-15T11:12:30;14.10;99.90
55004;DHT22;40900;52.710;6.438;2022-11-15T11:14:58;14.10;99.90
55004;DHT22;40900;52.710;6.438;2022-11-15T11:20:18;13.90;99.90
55004;DHT22;40900;52.710;6.438;2022-11-15T11:23:16;13.70;99.90
55004;DHT22;40900;52.710;6.438;2022-11-15T11:25:56;13.60;99.90
55004;DHT22;40900;52.710;6.438;2022-11-15T11:34:37;13.40;99.90
55004;DHT22;40900;52.710;6.438;2022-11-15T11:37:27;13.40;99.90
55004;DHT22;40900;52.710;6.438;2022-11-15T11:45:50;13.30;99.90
55004;DHT22;40900;52.710;6.438;2022-11-15T11:48:44;13.30;99.90
55004;DHT22;40900;52.710;6.438;2022-11-15T11:54:13;13.20;99.90
55004;DHT22;40900;52.710;6.438;2022-11-15T11:56:41;13.10;99.90
55004;DHT22;40900;52.710;6.438;2022-11-15T11:59:38;13.10;99.90
55004;DHT22;40900;52.710;6.438;2022-11-15T12:02:39;13.10;99.90
55004;DHT22;40900;52.710;6.438;2022-11-15T12:05:18;13.10;99.90
55004;DHT22;40900;52.710;6.438;2022-11-15T12:07:46;13.10;99.90
55004;DHT22;40900;52.710;6.438;2022-11-15T12:10:22;13.10;99.90
55004;DHT22;40900;52.710;6.438;2022-11-15T12:15:23;13.20;99.90
55004;DHT22;40900;52.710;6.438;2022-11-15T12:17:50;13.40;99.90
55004;DHT22;40900;52.710;6.438;2022-11-15T12:20:26;13.40;99.90
55004;DHT22;40900;52.710;6.438;2022-11-15T12:23:12;13.40;99.90
55004;DHT22;40900;52.710;6.438;2022-11-15T12:26:02;13.40;99.90
55004;DHT22;40900;52.710;6.438;2022-11-15T12:31:27;13.30;99.90
55004;DHT22;40900;52.710;6.438;2022-11-15T12:33:55;13.30;99.90
55004;DHT22;40900;52.710;6.438;2022-11-15T12:44:04;13.00;99.90
55004;DHT22;40900;52.710;6.438;2022-11-15T12:59:53;12.90;99.90
55004;DHT22;40900;52.710;6.438;2022-11-15T13:04:47;12.80;99.90
55004;DHT22;40900;52.710;6.438;2022-11-15T13:12:55;12.70;99.90
55004;DHT22;40900;52.710;6.438;2022-11-15T13:17:56;12.80;99.90
55004;DHT22;40900;52.710;6.438;2022-11-15T13:20:28;12.80;99.90
55004;DHT22;40900;52.710;6.438;2022-11-15T13:23:02;12.80;99.90
55004;DHT22;40900;52.710;6.438;2022-11-15T13:28:43;12.80;99.90
55004;DHT22;40900;52.710;6.438;2022-11-15T13:31:17;12.80;99.90
55004;DHT22;40900;52.710;6.438;2022-11-15T13:33:44;12.80;99.90
55004;DHT22;40900;52.710;6.438;2022-11-15T13:36:15;12.80;99.90
55004;DHT22;40900;52.710;6.438;2022-11-15T13:38:44;12.80;99.90
55004;DHT22;40900;52.710;6.438;2022-11-15T13:41:24;12.80;99.90
55004;DHT22;40900;52.710;6.438;2022-11-15T13:43:52;12.80;99.90
55004;DHT22;40900;52.710;6.438;2022-11-15T13:46:19;12.80;99.90
55004;DHT22;40900;52.710;6.438;2022-11-15T13:48:47;12.80;99.90
55004;DHT22;40900;52.710;6.438;2022-11-15T13:51:22;12.70;99.90
55004;DHT22;40900;52.710;6.438;2022-11-15T13:53:56;12.70;99.90
55004;DHT22;40900;52.710;6.438;2022-11-15T13:56:24;12.60;99.90
55004;DHT22;40900;52.710;6.438;2022-11-15T13:58:51;12.60;99.90
55004;DHT22;40900;52.710;6.438;2022-11-15T14:01:20;12.50;99.90
55004;DHT22;40900;52.710;6.438;2022-11-15T14:03:50;12.50;99.90
55004;DHT22;40900;52.710;6.438;2022-11-15T14:06:19;12.50;99.90
55004;DHT22;40900;52.710;6.438;2022-11-15T14:11:29;12.40;99.90
55004;DHT22;40900;52.710;6.438;2022-11-15T14:19:13;12.30;99.90
55004;DHT22;40900;52.710;6.438;2022-11-15T14:22:15;12.30;99.90
55004;DHT22;40900;52.710;6.438;2022-11-15T14:24:46;12.30;99.90
55004;DHT22;40900;52.710;6.438;2022-11-15T14:27:30;12.30;99.90
55004;DHT22;40900;52.710;6.438;2022-11-15T14:29:56;12.20;99.90
55004;DHT22;40900;52.710;6.438;2022-11-15T14:32:24;12.30;99.90
55004;DHT22;40900;52.710;6.438;2022-11-15T14:34:59;12.30;99.90
55004;DHT22;40900;52.710;6.438;2022-11-15T14:37:32;12.30;99.90
55004;DHT22;40900;52.710;6.438;2022-11-15T14:40:01;12.20;99.90
55004;DHT22;40900;52.710;6.438;2022-11-15T14:42:27;12.20;99.90
55004;DHT22;40900;52.710;6.438;2022-11-15T14:44:53;12.20;99.90
55004;DHT22;40900;52.710;6.438;2022-11-15T14:47:18;12.20;99.90
55004;DHT22;40900;52.710;6.438;2022-11-15T14:49:44;12.10;99.90
55004;DHT22;40900;52.710;6.438;2022-11-15T14:52:32;12.10;99.90
55004;DHT22;40900;52.710;6.438;2022-11-15T14:55:03;12.10;99.90
55004;DHT22;40900;52.710;6.438;2022-11-15T14:57:29;12.10;99.90
55004;DHT22;40900;52.710;6.438;2022-11-15T14:59:55;12.10;99.90
55004;DHT22;40900;52.710;6.438;2022-11-15T15:02:24;12.10;99.90
55004;DHT22;40900;52.710;6.438;2022-11-15T15:04:50;12.10;99.90
55004;DHT22;40900;52.710;6.438;2022-11-15T15:07:17;12.10;99.90
55004;DHT22;40900;52.710;6.438;2022-11-15T15:09:44;12.10;99.90
55004;DHT22;40900;52.710;6.438;2022-11-15T15:14:40;12.10;99.90
55004;DHT22;40900;52.710;6.438;2022-11-15T15:17:06;12.10;99.90
55004;DHT22;40900;52.710;6.438;2022-11-15T15:19:31;12.00;99.90
55004;DHT22;40900;52.710;6.438;2022-11-15T15:21:57;12.00;99.90
55004;DHT22;40900;52.710;6.438;2022-11-15T15:24:23;12.00;99.90
55004;DHT22;40900;52.710;6.438;2022-11-15T15:26:48;11.90;99.90
55004;DHT22;40900;52.710;6.438;2022-11-15T15:29:15;11.90;99.90
55004;DHT22;40900;52.710;6.438;2022-11-15T15:31:41;11.90;99.90
55004;DHT22;40900;52.710;6.438;2022-11-15T15:34:06;11.80;99.90
55004;DHT22;40900;52.710;6.438;2022-11-15T15:36:32;11.70;99.90
55004;DHT22;40900;52.710;6.438;2022-11-15T15:38:58;11.70;99.90
55004;DHT22;40900;52.710;6.438;2022-11-15T15:41:23;11.60;99.90
55004;DHT22;40900;52.710;6.438;2022-11-15T15:43:49;11.60;99.90
55004;DHT22;40900;52.710;6.438;2022-11-15T15:46:17;11.50;99.90
55004;DHT22;40900;52.710;6.438;2022-11-15T15:48:43;11.50;99.90
55004;DHT22;40900;52.710;6.438;2022-11-15T15:51:09;11.40;99.90
55004;DHT22;40900;52.710;6.438;2022-11-15T15:53:35;11.40;99.90
55004;DHT22;40900;52.710;6.438;2022-11-15T15:56:01;11.30;99.90
55004;DHT22;40900;52.710;6.438;2022-11-15T15:58:27;11.30;99.90
55004;DHT22;40900;52.710;6.438;2022-11-15T16:00:52;11.30;99.90
55004;DHT22;40900;52.710;6.438;2022-11-15T16:03:18;11.30;99.90
55004;DHT22;40900;52.710;6.438;2022-11-15T16:05:44;11.20;99.90
55004;DHT22;40900;52.710;6.438;2022-11-15T16:08:21;11.20;99.90
55004;DHT22;40900;52.710;6.438;2022-11-15T16:10:48;11.20;99.90
55004;DHT22;40900;52.710;6.438;2022-11-15T16:13:14;11.20;99.90
55004;DHT22;40900;52.710;6.438;2022-11-15T16:15:40;11.20;99.90
55004;DHT22;40900;52.710;6.438;2022-11-15T16:18:09;11.20;99.90
55004;DHT22;40900;52.710;6.438;2022-11-15T16:20:40;11.20;99.90
55004;DHT22;40900;52.710;6.438;2022-11-15T16:23:10;11.20;99.90
55004;DHT22;40900;52.710;6.438;2022-11-15T16:25:49;11.20;99.90
55004;DHT22;40900;52.710;6.438;2022-11-15T16:28:26;11.20;99.90
55004;DHT22;40900;52.710;6.438;2022-11-15T16:31:12;11.20;99.90
55004;DHT22;40900;52.710;6.438;2022-11-15T16:33:38;11.20;99.90
55004;DHT22;40900;52.710;6.438;2022-11-15T16:36:18;11.20;99.90
55004;DHT22;40900;52.710;6.438;2022-11-15T16:38:44;11.20;99.90
55004;DHT22;40900;52.710;6.438;2022-11-15T16:41:10;11.20;99.90
55004;DHT22;40900;52.710;6.438;2022-11-15T16:43:36;11.20;99.90
55004;DHT22;40900;52.710;6.438;2022-11-15T16:46:23;11.20;99.90
55004;DHT22;40900;52.710;6.438;2022-11-15T16:48:49;11.20;99.90
55004;DHT22;40900;52.710;6.438;2022-11-15T16:51:15;11.20;99.90
55004;DHT22;40900;52.710;6.438;2022-11-15T16:53:42;11.20;99.90
55004;DHT22;40900;52.710;6.438;2022-11-15T16:56:27;11.30;99.90
55004;DHT22;40900;52.710;6.438;2022-11-15T16:58:54;11.30;99.90
55004;DHT22;40900;52.710;6.438;2022-11-15T17:01:28;11.30;99.90
55004;DHT22;40900;52.710;6.438;2022-11-15T17:03:55;11.30;99.90
55004;DHT22;40900;52.710;6.438;2022-11-15T17:06:21;11.30;99.90
55004;DHT22;40900;52.710;6.438;2022-11-15T17:08:47;11.30;99.90
55004;DHT22;40900;52.710;6.438;2022-11-15T17:11:16;11.30;99.90
55004;DHT22;40900;52.710;6.438;2022-11-15T17:13:42;11.30;99.90
55004;DHT22;40900;52.710;6.438;2022-11-15T17:16:16;11.30;99.90
55004;DHT22;40900;52.710;6.438;2022-11-15T17:18:43;11.30;99.90
55004;DHT22;40900;52.710;6.438;2022-11-15T17:21:16;11.30;99.90
55004;DHT22;40900;52.710;6.438;2022-11-15T17:23:43;11.30;99.90
55004;DHT22;40900;52.710;6.438;2022-11-15T17:26:10;11.30;99.90
55004;DHT22;40900;52.710;6.438;2022-11-15T17:28:37;11.30;99.90
55004;DHT22;40900;52.710;6.438;2022-11-15T17:31:06;11.30;99.90
55004;DHT22;40900;52.710;6.438;2022-11-15T17:33:32;11.30;99.90
55004;DHT22;40900;52.710;6.438;2022-11-15T17:36:00;11.40;99.90
55004;DHT22;40900;52.710;6.438;2022-11-15T17:38:27;11.40;99.90
55004;DHT22;40900;52.710;6.438;2022-11-15T17:41:04;11.40;99.90